createdAt,value
2019-04-22T00:02:17.094Z,17.50
2019-04-22T00:04:58.705Z,15.03
2019-04-22T00:07:43.262Z,15.47
2019-04-22T00:10:19.693Z,15.47
2019-04-22T00:12:47.064Z,15.73
2019-04-22T00:15:15.741Z,15.07
2019-04-22T00:18:03.330Z,14.63
2019-04-22T00:20:22.431Z,14.70
2019-04-22T00:22:55.015Z,17.00
2019-04-22T00:25:26.488Z,20.77
2019-04-22T00:27:59.054Z,14.80
2019-04-22T00:30:25.486Z,15.47
2019-04-22T00:33:07.937Z,14.27
2019-04-22T00:35:38.315Z,16.43
2019-04-22T00:38:19.083Z,14.77
2019-04-22T00:40:44.640Z,15.67
2019-04-22T00:43:13.342Z,16.43
2019-04-22T00:45:52.516Z,16.03
2019-04-22T00:48:22.379Z,22.87
2019-04-22T00:51:04.208Z,17.93
2019-04-22T00:53:29.829Z,16.63
2019-04-22T00:58:40.654Z,18.43
2019-04-22T01:01:15.763Z,16.27
2019-04-22T01:03:50.246Z,16.60
2019-04-22T01:06:15.793Z,19.13
2019-04-22T01:08:53.773Z,16.40
2019-04-22T01:11:25.158Z,19.30
2019-04-22T01:13:50.167Z,18.60
2019-04-22T01:16:23.967Z,17.50
2019-04-22T01:18:50.548Z,20.57
2019-04-22T01:21:33.156Z,18.40
2019-04-22T01:23:55.117Z,19.53
2019-04-22T01:26:27.129Z,17.43
2019-04-22T01:28:55.499Z,18.07
2019-04-22T01:31:17.954Z,29.80
2019-04-22T01:33:58.510Z,19.43
2019-04-22T01:36:37.819Z,19.53
2019-04-22T01:39:10.461Z,21.77
2019-04-22T01:41:51.727Z,21.50
2019-04-22T01:44:27.628Z,20.57
2019-04-22T01:49:25.676Z,20.07
2019-04-22T01:54:31.038Z,23.03
2019-04-22T01:56:55.287Z,21.77
2019-04-22T01:59:15.626Z,24.60
2019-04-22T02:02:00.522Z,20.93
2019-04-22T02:04:32.411Z,21.07
2019-04-22T02:07:03.208Z,26.77
2019-04-22T02:09:41.263Z,23.27
2019-04-22T02:12:05.872Z,24.00
2019-04-22T02:14:39.549Z,22.73
2019-04-22T02:17:10.864Z,22.47
2019-04-22T02:22:07.310Z,23.13
2019-04-22T02:24:46.856Z,24.17
2019-04-22T02:27:21.001Z,25.47
2019-04-22T02:29:47.341Z,23.50
2019-04-22T02:32:27.266Z,28.60
2019-04-22T02:35:01.275Z,22.73
2019-04-22T02:37:23.414Z,27.63
2019-04-22T02:40:01.584Z,23.43
2019-04-22T02:42:16.381Z,24.27
2019-04-22T02:45:10.126Z,23.83
2019-04-22T02:50:01.823Z,22.77
2019-04-22T02:55:15.569Z,25.20
2019-04-22T03:05:09.115Z,24.37
2019-04-22T03:07:48.894Z,25.60
2019-04-22T03:10:22.697Z,27.37
2019-04-22T03:17:47.297Z,26.07
2019-04-22T03:22:46.851Z,28.23
2019-04-22T03:25:51.754Z,26.73
2019-04-22T03:27:46.409Z,28.90
2019-04-22T03:33:20.087Z,28.40
2019-04-22T03:38:12.299Z,30.60
2019-04-22T03:48:05.251Z,30.03
2019-04-22T03:50:42.924Z,35.07
2019-04-22T03:53:14.930Z,32.20
2019-04-22T03:55:49.351Z,31.67
2019-04-22T03:58:25.395Z,28.63
2019-04-22T04:03:15.038Z,33.20
2019-04-22T04:05:54.154Z,33.60
2019-04-22T04:08:23.984Z,32.67
2019-04-22T04:10:50.157Z,40.43
2019-04-22T04:13:29.385Z,33.17
2019-04-22T04:15:53.519Z,33.67
2019-04-22T04:18:19.237Z,32.77
2019-04-22T04:21:12.505Z,34.57
2019-04-22T04:25:52.615Z,38.83
2019-04-22T04:31:04.850Z,34.30
2019-04-22T04:33:50.951Z,33.60
2019-04-22T04:36:26.992Z,34.10
2019-04-22T04:41:17.260Z,37.53
2019-04-22T04:43:50.341Z,32.20
2019-04-22T04:46:20.639Z,42.37
2019-04-22T04:51:31.067Z,37.63
2019-04-22T04:53:47.546Z,37.53
2019-04-22T04:56:20.977Z,35.87
2019-04-22T05:01:41.577Z,36.00
2019-04-22T05:03:57.881Z,35.83
2019-04-22T05:06:21.738Z,35.37
2019-04-22T05:09:11.373Z,37.13
2019-04-22T05:14:03.253Z,37.67
2019-04-22T05:18:59.245Z,37.23
2019-04-22T05:21:40.199Z,36.10
2019-04-22T05:24:05.545Z,35.73
2019-04-22T05:26:32.862Z,39.33
2019-04-22T05:29:03.826Z,36.57
2019-04-22T05:34:04.397Z,37.47
2019-04-22T05:36:35.904Z,37.67
2019-04-22T05:39:06.022Z,36.10
2019-04-22T05:41:36.524Z,39.27
2019-04-22T05:44:08.397Z,36.50
2019-04-22T05:46:34.695Z,37.70
2019-04-22T05:49:14.957Z,39.53
2019-04-22T05:51:42.254Z,38.37
2019-04-22T05:54:14.737Z,38.57
2019-04-22T05:56:41.228Z,37.93
2019-04-22T05:59:20.813Z,38.90
2019-04-22T06:02:05.250Z,39.80
2019-04-22T06:04:42.548Z,40.00
2019-04-22T06:06:51.747Z,39.13
2019-04-22T06:09:30.626Z,42.03
2019-04-22T06:11:54.345Z,38.50
2019-04-22T06:14:26.437Z,39.13
2019-04-22T06:17:08.202Z,40.60
2019-04-22T06:19:38.678Z,41.40
2019-04-22T06:22:17.249Z,41.87
2019-04-22T06:24:42.008Z,39.30
2019-04-22T06:27:18.770Z,40.97
2019-04-22T06:29:40.207Z,40.00
2019-04-22T06:34:42.213Z,40.63
2019-04-22T06:37:17.461Z,41.13
2019-04-22T06:40:07.186Z,43.33
2019-04-22T06:42:21.527Z,42.17
2019-04-22T06:44:52.678Z,40.87
2019-04-22T06:47:40.025Z,40.17
2019-04-22T06:49:57.320Z,42.17
2019-04-22T06:52:22.346Z,41.20
2019-04-22T06:54:59.423Z,40.73
2019-04-22T06:57:30.877Z,43.50
2019-04-22T07:00:08.304Z,42.87
2019-04-22T07:02:45.273Z,42.07
2019-04-22T07:05:08.282Z,46.07
2019-04-22T07:07:38.700Z,42.97
2019-04-22T07:10:17.836Z,44.13
2019-04-22T07:12:47.223Z,43.87
2019-04-22T07:15:23.150Z,42.77
2019-04-22T07:17:42.438Z,41.23
2019-04-22T07:20:17.780Z,44.60
2019-04-22T07:22:45.394Z,43.03
2019-04-22T07:25:15.987Z,42.70
2019-04-22T07:27:47.350Z,42.50
2019-04-22T07:30:22.411Z,40.80
2019-04-22T07:35:28.607Z,39.90
2019-04-22T07:37:46.973Z,40.87
2019-04-22T07:40:28.772Z,42.37
2019-04-22T07:42:57.067Z,42.23
2019-04-22T07:45:29.845Z,42.93
2019-04-22T07:48:01.715Z,42.77
2019-04-22T07:50:44.383Z,39.77
2019-04-22T07:52:59.226Z,40.63
2019-04-22T07:55:32.771Z,38.57
2019-04-22T07:58:11.905Z,40.43
2019-04-22T08:00:40.216Z,40.50
2019-04-22T08:03:22.672Z,40.13
2019-04-22T08:05:58.838Z,38.43
2019-04-22T08:13:25.276Z,37.27
2019-04-22T08:18:28.852Z,38.83
2019-04-22T08:20:58.474Z,38.90
2019-04-22T08:23:31.769Z,36.00
2019-04-22T08:26:14.776Z,37.43
2019-04-22T08:31:07.615Z,37.87
2019-04-22T08:33:33.366Z,39.20
2019-04-22T08:38:39.610Z,39.07
2019-04-22T08:41:24.822Z,36.87
2019-04-22T08:43:54.460Z,38.20
2019-04-22T08:46:24.192Z,38.13
2019-04-22T08:48:52.980Z,39.77
2019-04-22T08:51:22.257Z,36.00
2019-04-22T08:56:29.382Z,35.77
2019-04-22T08:58:57.266Z,37.73
2019-04-22T09:03:58.587Z,35.73
2019-04-22T09:09:03.418Z,34.07
2019-04-22T09:11:35.614Z,35.13
2019-04-22T09:14:01.657Z,33.50
2019-04-22T09:16:37.295Z,32.10
2019-04-22T09:19:05.923Z,33.77
2019-04-22T09:21:44.063Z,30.87
2019-04-22T09:24:10.773Z,33.10
2019-04-22T09:26:44.989Z,31.67
2019-04-22T09:29:13.005Z,31.83
2019-04-22T09:31:52.024Z,31.70
2019-04-22T09:34:20.922Z,30.73
2019-04-22T09:36:52.276Z,31.57
2019-04-22T09:39:21.999Z,32.13
2019-04-22T09:41:55.672Z,32.73
2019-04-22T09:44:28.776Z,33.83
2019-04-22T09:46:52.340Z,30.63
2019-04-22T09:49:34.871Z,30.72
2019-04-22T09:52:01.450Z,31.27
2019-04-22T09:54:44.146Z,31.15
2019-04-22T09:57:03.284Z,30.80
2019-04-22T09:59:36.724Z,29.98
2019-04-22T10:02:20.142Z,28.95
2019-04-22T10:04:41.929Z,28.17
2019-04-22T10:07:13.074Z,26.48
2019-04-22T10:09:53.139Z,26.85
2019-04-22T10:12:16.618Z,27.58
2019-04-22T10:14:45.675Z,25.75
2019-04-22T10:17:15.532Z,26.42
2019-04-22T10:19:40.925Z,26.82
2019-04-22T10:22:19.713Z,24.92
2019-04-22T10:24:45.000Z,27.17
2019-04-22T10:27:12.934Z,28.65
2019-04-22T10:29:54.189Z,27.30
2019-04-22T10:32:17.558Z,26.10
2019-04-22T10:34:55.536Z,24.82
2019-04-22T10:37:23.412Z,25.92
2019-04-22T10:39:56.254Z,24.60
2019-04-22T10:42:23.036Z,21.57
2019-04-22T10:44:55.465Z,23.60
2019-04-22T10:47:25.712Z,20.55
2019-04-22T10:49:56.293Z,21.73
2019-04-22T10:52:27.547Z,23.77
2019-04-22T10:54:57.310Z,23.27
2019-04-22T10:57:27.668Z,23.07
2019-04-22T10:59:58.748Z,22.32
2019-04-22T11:02:29.787Z,24.92
2019-04-22T11:04:59.587Z,22.75
2019-04-22T11:07:37.322Z,20.57
2019-04-22T11:10:25.283Z,23.40
2019-04-22T11:12:35.473Z,23.32
2019-04-22T11:15:07.728Z,23.73
2019-04-22T11:17:37.722Z,22.27
2019-04-22T11:20:08.807Z,25.72
2019-04-22T11:22:38.894Z,20.20
2019-04-22T11:25:10.169Z,22.00
2019-04-22T11:27:41.101Z,17.48
2019-04-22T11:30:13.823Z,21.30
2019-04-22T11:32:44.651Z,18.12
2019-04-22T11:35:16.155Z,19.15
2019-04-22T11:37:46.584Z,14.03
2019-04-22T11:40:24.039Z,16.10
2019-04-22T11:42:48.260Z,16.55
2019-04-22T11:45:19.326Z,22.58
2019-04-22T11:47:49.204Z,17.77
2019-04-22T11:50:19.966Z,18.23
2019-04-22T11:52:50.922Z,21.95
2019-04-22T11:55:22.453Z,19.45
2019-04-22T11:57:54.139Z,18.00
2019-04-22T12:00:32.763Z,20.60
2019-04-22T12:03:03.203Z,18.37
2019-04-22T12:05:34.323Z,16.97
2019-04-22T12:08:04.958Z,18.50
2019-04-22T12:10:42.704Z,20.85
2019-04-22T12:13:08.004Z,18.50
2019-04-22T12:15:37.805Z,18.02
2019-04-22T12:18:09.234Z,17.42
2019-04-22T12:20:41.422Z,16.45
2019-04-22T12:23:12.740Z,13.93
2019-04-22T12:25:51.641Z,14.53
2019-04-22T12:28:15.104Z,14.85
2019-04-22T12:30:45.727Z,12.78
2019-04-22T12:33:16.942Z,12.85
2019-04-22T12:35:46.841Z,13.00
2019-04-22T12:38:18.861Z,16.87
2019-04-22T12:40:55.257Z,11.85
2019-04-22T12:43:23.723Z,13.40
2019-04-22T12:45:54.128Z,13.90
2019-04-22T12:48:25.271Z,13.20
2019-04-22T12:50:58.083Z,12.33
2019-04-22T12:53:28.042Z,11.43
2019-04-22T12:55:59.327Z,11.38
2019-04-22T12:58:29.790Z,12.13
2019-04-22T13:01:01.044Z,10.05
2019-04-22T13:03:32.009Z,9.63
2019-04-22T13:06:01.781Z,7.85
2019-04-22T13:08:31.740Z,11.05
2019-04-22T13:11:09.752Z,6.78
2019-04-22T13:13:34.570Z,7.78
2019-04-22T13:16:17.367Z,9.00
2019-04-22T13:18:53.800Z,10.60
2019-04-22T13:21:18.679Z,9.93
2019-04-22T13:23:48.896Z,9.50
2019-04-22T13:26:19.054Z,9.20
2019-04-22T13:28:49.264Z,8.30
2019-04-22T13:31:20.747Z,6.97
2019-04-22T13:33:54.867Z,7.95
2019-04-22T13:36:23.988Z,11.10
2019-04-22T13:38:53.270Z,10.10
2019-04-22T13:41:31.672Z,7.83
2019-04-22T13:43:55.797Z,7.65
2019-04-22T13:46:26.370Z,11.25
2019-04-22T13:49:23.977Z,11.45
2019-04-22T13:57:03.365Z,9.40
2019-04-22T13:59:10.269Z,7.87
2019-04-22T14:02:00.710Z,8.48
2019-04-22T14:04:34.742Z,11.93
2019-04-22T14:07:05.173Z,12.03
2019-04-22T14:09:35.987Z,7.42
2019-04-22T14:12:08.191Z,14.80
2019-04-22T14:14:39.304Z,9.53
2019-04-22T14:17:09.171Z,11.78
2019-04-22T14:19:39.166Z,15.30
2019-04-22T14:22:11.626Z,11.03
2019-04-22T14:24:42.659Z,8.18
2019-04-22T14:27:27.101Z,11.57
2019-04-22T14:29:43.945Z,10.20
2019-04-22T14:32:19.339Z,10.20
2019-04-22T14:34:45.210Z,15.18
2019-04-22T14:37:16.335Z,10.85
2019-04-22T14:39:46.269Z,11.30
2019-04-22T14:42:34.475Z,11.28
2019-04-22T14:47:47.890Z,13.75
2019-04-22T14:50:16.127Z,12.80
2019-04-22T14:52:46.327Z,14.47
2019-04-22T14:55:06.047Z,17.15
2019-04-22T14:57:27.739Z,14.63
2019-04-22T14:59:57.874Z,13.40
2019-04-22T15:02:28.036Z,11.65
2019-04-22T15:04:58.441Z,16.02
2019-04-22T15:07:28.810Z,13.08
2019-04-22T15:10:18.160Z,13.45
2019-04-22T15:12:50.237Z,13.95
2019-04-22T15:15:31.273Z,15.00
2019-04-22T15:18:08.082Z,17.37
2019-04-22T15:20:50.995Z,14.68
2019-04-22T15:23:20.274Z,12.90
2019-04-22T15:25:52.814Z,18.40
2019-04-22T15:28:23.728Z,17.48
2019-04-22T15:30:53.553Z,16.25
2019-04-22T15:33:23.573Z,15.00
2019-04-22T15:35:53.648Z,15.75
2019-04-22T15:38:24.353Z,18.98
2019-04-22T15:40:54.811Z,24.07
2019-04-22T15:43:28.915Z,18.20
2019-04-22T15:45:58.696Z,15.75
2019-04-22T15:48:27.414Z,10.23
2019-04-22T15:50:58.369Z,9.95
2019-04-22T15:53:29.510Z,10.32
2019-04-22T15:56:00.492Z,9.60
2019-04-22T15:58:30.660Z,8.70
2019-04-22T16:01:10.905Z,11.15
2019-04-22T16:03:32.372Z,14.03
2019-04-22T16:06:02.275Z,20.30
2019-04-22T16:08:34.186Z,17.10
2019-04-22T16:11:04.099Z,12.75
2019-04-22T16:13:36.761Z,8.83
2019-04-22T16:16:06.789Z,12.13
2019-04-22T16:18:37.979Z,10.70
2019-04-22T16:21:08.959Z,10.38
2019-04-22T16:23:52.102Z,24.80
2019-04-22T16:26:40.183Z,8.65
2019-04-22T16:29:11.665Z,8.58
2019-04-22T16:31:42.741Z,6.78
2019-04-22T16:34:13.378Z,11.20
2019-04-22T16:36:43.075Z,12.37
2019-04-22T16:39:13.282Z,61.80
2019-04-22T16:41:44.581Z,15.00
2019-04-22T16:44:14.502Z,8.88
2019-04-22T16:46:45.669Z,9.33
2019-04-22T16:49:15.897Z,13.18
2019-04-22T16:51:46.153Z,9.65
2019-04-22T16:54:16.071Z,8.48
2019-04-22T16:56:46.006Z,17.12
2019-04-22T16:59:16.885Z,16.87
2019-04-22T17:02:06.435Z,12.18
2019-04-22T17:04:59.550Z,9.75
2019-04-22T17:07:29.968Z,9.73
2019-04-22T17:09:59.867Z,11.08
2019-04-22T17:12:40.863Z,12.98
2019-04-22T17:15:07.275Z,37.05
2019-04-22T17:17:34.033Z,10.95
2019-04-22T17:20:05.082Z,8.55
2019-04-22T17:22:35.551Z,18.82
2019-04-22T17:25:06.563Z,9.35
2019-04-22T17:27:39.177Z,9.10
2019-04-22T17:30:10.539Z,6.53
2019-04-22T17:32:43.233Z,11.88
2019-04-22T17:35:24.243Z,7.62
2019-04-22T17:38:04.168Z,8.25
2019-04-22T17:40:44.909Z,9.15
2019-04-22T17:43:29.888Z,7.70
2019-04-22T17:45:55.861Z,9.08
2019-04-22T17:48:49.134Z,7.53
2019-04-22T17:51:29.802Z,11.40
2019-04-22T17:53:55.043Z,9.50
2019-04-22T17:56:27.567Z,10.70
2019-04-22T17:58:56.821Z,8.23
2019-04-22T18:01:29.675Z,6.78
2019-04-22T18:03:45.775Z,5.87
2019-04-22T18:06:35.028Z,11.03
2019-04-22T18:09:01.773Z,13.88
2019-04-22T18:11:42.932Z,7.92
2019-04-22T18:14:28.635Z,11.93
2019-04-22T18:16:39.309Z,8.08
2019-04-22T18:19:08.922Z,9.05
2019-04-22T18:21:37.402Z,9.43
2019-04-22T18:24:04.316Z,5.85
2019-04-22T18:26:43.618Z,5.63
2019-04-22T18:29:11.498Z,7.95
2019-04-22T18:31:35.898Z,8.15
2019-04-22T18:34:10.202Z,12.17
2019-04-22T18:36:40.375Z,9.10
2019-04-22T18:39:22.371Z,7.47
2019-04-22T18:41:48.945Z,7.33
2019-04-22T18:44:25.125Z,6.73
2019-04-22T18:46:53.808Z,9.87
2019-04-22T18:49:21.644Z,5.33
2019-04-22T18:52:07.205Z,6.30
2019-04-22T18:54:55.227Z,5.73
2019-04-22T18:57:22.192Z,5.13
2019-04-22T18:59:40.143Z,15.30
2019-04-22T19:02:14.208Z,5.97
2019-04-22T19:04:50.147Z,5.43
2019-04-22T19:07:34.655Z,8.13
2019-04-22T19:10:09.603Z,5.70
2019-04-22T19:12:44.248Z,7.63
2019-04-22T19:15:13.207Z,5.17
2019-04-22T19:17:46.342Z,5.37
2019-04-22T19:20:15.619Z,6.20
2019-04-22T19:22:50.410Z,4.87
2019-04-22T19:25:05.898Z,4.40
2019-04-22T19:27:42.178Z,5.17
2019-04-22T19:30:16.432Z,4.17
2019-04-22T19:32:51.179Z,14.93
2019-04-22T19:35:14.383Z,4.43
2019-04-22T19:37:45.225Z,6.93
2019-04-22T19:40:26.034Z,5.17
2019-04-22T19:43:05.807Z,9.10
2019-04-22T19:45:31.472Z,5.83
2019-04-22T19:48:16.642Z,6.37
2019-04-22T19:50:45.046Z,3.57
2019-04-22T19:53:15.551Z,6.90
2019-04-22T19:55:46.925Z,4.73
2019-04-22T19:58:17.603Z,9.17
2019-04-22T20:01:17.177Z,5.47
2019-04-22T20:04:03.671Z,7.67
2019-04-22T20:06:38.422Z,3.73
2019-04-22T20:09:13.633Z,5.03
2019-04-22T20:11:38.553Z,4.43
2019-04-22T20:14:12.748Z,5.13
2019-04-22T20:16:38.527Z,14.13
2019-04-22T20:19:23.978Z,4.57
2019-04-22T20:21:50.044Z,4.60
2019-04-22T20:24:10.282Z,3.40
2019-04-22T20:26:56.187Z,5.57
2019-04-22T20:29:27.148Z,4.33
2019-04-22T20:31:54.394Z,7.50
2019-04-22T20:34:36.016Z,3.77
2019-04-22T20:37:08.237Z,4.83
2019-04-22T20:39:33.552Z,4.37
2019-04-22T20:42:21.368Z,3.23
2019-04-22T20:44:39.571Z,3.40
2019-04-22T20:47:04.610Z,5.00
2019-04-22T20:49:38.337Z,2.53
2019-04-22T20:52:16.423Z,7.90
2019-04-22T20:54:40.622Z,3.33
2019-04-22T20:57:07.426Z,6.27
2019-04-22T20:59:42.891Z,19.73
2019-04-22T21:02:11.510Z,4.07
2019-04-22T21:04:38.240Z,2.83
2019-04-22T21:07:13.790Z,5.33
2019-04-22T21:09:49.185Z,4.50
2019-04-22T21:12:13.743Z,3.30
2019-04-22T21:14:54.970Z,4.00
2019-04-22T21:17:28.618Z,6.50
2019-04-22T21:20:00.629Z,12.30
2019-04-22T21:22:27.318Z,3.47
2019-04-22T21:24:52.281Z,8.17
2019-04-22T21:27:28.855Z,5.47
2019-04-22T21:29:56.964Z,3.77
2019-04-22T21:32:31.386Z,6.30
2019-04-22T21:35:06.682Z,3.73
2019-04-22T21:37:38.511Z,4.07
2019-04-22T21:39:59.982Z,7.50
2019-04-22T21:42:46.036Z,6.83
2019-04-22T21:45:01.640Z,5.37
2019-04-22T21:47:41.889Z,5.47
2019-04-22T21:50:30.991Z,11.57
2019-04-22T21:52:42.630Z,4.87
2019-04-22T21:55:16.659Z,4.53
2019-04-22T21:57:57.786Z,3.60
2019-04-22T22:00:40.814Z,3.17
2019-04-22T22:03:02.133Z,2.60
2019-04-22T22:05:20.059Z,5.77
2019-04-22T22:07:48.082Z,6.13
2019-04-22T22:10:33.916Z,5.60
2019-04-22T22:13:06.178Z,6.30
2019-04-22T22:15:40.335Z,3.73
2019-04-22T22:18:02.028Z,4.07
2019-04-22T22:20:44.959Z,7.23
2019-04-22T22:23:15.026Z,2.87
2019-04-22T22:25:40.065Z,3.97
2019-04-22T22:28:23.946Z,2.90
2019-04-22T22:30:55.346Z,4.80
2019-04-22T22:33:17.476Z,3.23
2019-04-22T22:35:45.752Z,5.03
2019-04-22T22:38:21.676Z,3.20
2019-04-22T22:40:32.828Z,5.53
2019-04-22T22:43:10.568Z,5.83
2019-04-22T22:45:39.783Z,3.33
2019-04-22T22:48:28.510Z,2.47
2019-04-22T22:50:52.944Z,10.40
2019-04-22T22:53:35.539Z,10.70
2019-04-22T22:56:00.447Z,4.80
2019-04-22T22:58:27.725Z,6.07
2019-04-22T23:00:58.000Z,3.17
2019-04-22T23:03:46.022Z,5.57
2019-04-22T23:06:02.936Z,9.17
2019-04-22T23:08:46.099Z,11.27
2019-04-22T23:11:05.299Z,3.23
2019-04-22T23:13:40.388Z,7.57
2019-04-22T23:16:03.307Z,7.37
2019-04-22T23:18:19.801Z,2.97
2019-04-22T23:20:51.828Z,2.73
2019-04-22T23:23:41.898Z,4.87
2019-04-22T23:26:32.218Z,2.63
2019-04-22T23:29:03.924Z,2.27
2019-04-22T23:31:44.158Z,2.87
2019-04-22T23:34:24.056Z,2.80
2019-04-22T23:37:10.466Z,4.03
2019-04-22T23:39:54.723Z,6.00
2019-04-22T23:42:21.885Z,2.63
2019-04-22T23:44:49.682Z,2.33
2019-04-22T23:47:23.831Z,6.57
2019-04-22T23:49:56.558Z,8.50
2019-04-22T23:52:28.471Z,7.10
2019-04-22T23:55:11.634Z,5.77
2019-04-22T23:57:50.463Z,4.30
